createdAt,value
2023-02-24T04:21:57.094Z,15.60
2023-02-24T04:33:01.941Z,13.10
2023-02-24T04:44:01.831Z,11.80
2023-02-24T04:55:01.695Z,13.20
2023-02-24T05:06:01.576Z,11.80
2023-02-24T05:17:01.458Z,12.10
2023-02-24T05:28:01.334Z,11.90
2023-02-24T05:39:01.216Z,12.80
2023-02-24T05:50:01.099Z,12.90
2023-02-24T06:01:00.955Z,10.30
2023-02-24T06:12:00.896Z,13.20
2023-02-24T06:23:00.729Z,12.70
2023-02-24T06:34:00.605Z,13.10
2023-02-24T06:45:00.502Z,13.00
2023-02-24T06:56:00.348Z,14.40
2023-02-24T07:07:00.229Z,14.10
2023-02-24T07:18:00.135Z,13.40
2023-02-24T07:28:59.983Z,15.10
2023-02-24T07:39:59.862Z,16.60
2023-02-24T07:50:59.735Z,13.10
2023-02-24T08:01:59.609Z,16.00
2023-02-24T08:12:59.489Z,16.70
2023-02-24T08:23:59.369Z,17.80
2023-02-24T08:34:59.264Z,14.60
2023-02-24T08:45:59.133Z,18.40
2023-02-24T08:56:59.009Z,18.00
2023-02-24T09:07:59.912Z,16.80
2023-02-24T09:18:58.767Z,16.10
2023-02-24T09:29:58.637Z,18.70
2023-02-24T09:41:01.024Z,17.20
2023-02-24T09:51:59.400Z,20.20
2023-02-24T10:02:58.280Z,18.50
2023-02-24T10:14:03.517Z,18.00
2023-02-24T10:24:58.030Z,18.20
2023-02-24T10:35:57.904Z,18.50
2023-02-24T10:46:57.808Z,16.70
2023-02-24T10:57:59.382Z,13.80
2023-02-24T11:08:58.061Z,13.40
2023-02-24T11:19:57.439Z,16.10
2023-02-24T11:30:57.439Z,13.80
2023-02-24T11:41:57.236Z,11.40
2023-02-24T11:52:57.064Z,11.60
2023-02-24T12:03:56.930Z,14.70
2023-02-24T12:14:56.792Z,11.60
2023-02-24T12:25:56.825Z,14.50
2023-02-24T12:36:56.584Z,9.70
2023-02-24T12:47:57.261Z,9.80
2023-02-24T12:58:56.379Z,11.70
2023-02-24T13:09:56.222Z,9.80
2023-02-24T13:20:56.049Z,10.30
2023-02-24T13:31:55.978Z,9.20
2023-02-24T13:42:55.821Z,9.60
2023-02-24T13:53:57.528Z,9.80
2023-02-24T14:04:55.605Z,9.50
2023-02-24T14:15:55.515Z,6.90
2023-02-24T14:26:55.317Z,4.60
2023-02-24T14:37:55.204Z,6.60
2023-02-24T14:48:55.081Z,5.60
2023-02-24T14:59:54.958Z,5.90
2023-02-24T15:10:55.411Z,4.40
2023-02-24T15:21:54.722Z,5.10
2023-02-24T15:32:54.648Z,5.20
2023-02-24T15:43:54.430Z,5.10
2023-02-24T15:54:54.313Z,4.40
2023-02-24T16:05:54.188Z,4.20
2023-02-24T16:16:54.145Z,4.80
2023-02-24T16:27:53.989Z,5.40
2023-02-24T16:38:53.842Z,5.30
2023-02-24T16:49:53.693Z,5.60
2023-02-24T17:00:53.631Z,5.60
2023-02-24T17:11:53.451Z,5.10
2023-02-24T17:22:53.333Z,5.00
2023-02-24T17:33:53.221Z,5.70
2023-02-24T17:44:53.096Z,5.50
2023-02-24T17:56:02.245Z,4.70
2023-02-24T18:06:52.835Z,5.20
2023-02-24T18:17:52.709Z,2.60
2023-02-24T18:28:52.596Z,2.80
2023-02-24T18:39:52.502Z,3.70
2023-02-24T18:50:52.356Z,2.90
2023-02-24T19:01:52.284Z,2.10
2023-02-24T19:12:52.129Z,2.30
2023-02-24T19:23:51.980Z,1.90
2023-02-24T19:34:51.851Z,2.00
2023-02-24T19:45:51.840Z,1.80
2023-02-24T19:56:51.617Z,2.00
2023-02-24T20:07:51.496Z,3.20
2023-02-24T20:18:51.370Z,3.30
2023-02-24T20:29:53.465Z,3.10
2023-02-24T20:40:51.117Z,2.70
2023-02-24T20:51:50.992Z,3.40
2023-02-24T21:02:50.913Z,4.10
2023-02-24T21:13:50.802Z,5.30
2023-02-24T21:24:50.632Z,5.10
2023-02-24T21:35:50.510Z,4.60
2023-02-24T21:46:50.420Z,4.50
2023-02-24T21:57:50.240Z,3.80
